sensor_id;sensor_type;location;lat;lon;timestamp;pressure;altitude;pressure_sealevel;temperature;humidity
75447;BME280;64024;55.820;37.574;2023-04-28T00:01:16;98272.31;;;23.61;34.39
75447;BME280;64024;55.820;37.574;2023-04-28T00:03:41;98269.09;;;23.59;34.06
75447;BME280;64024;55.820;37.574;2023-04-28T00:06:08;98267.03;;;23.56;34.09
75447;BME280;64024;55.820;37.574;2023-04-28T00:08:34;98269.25;;;23.54;34.30
75447;BME280;64024;55.820;37.574;2023-04-28T00:11:00;98271.81;;;23.50;34.26
75447;BME280;64024;55.820;37.574;2023-04-28T00:13:26;98271.63;;;23.47;34.30
75447;BME280;64024;55.820;37.574;2023-04-28T00:15:52;98269.88;;;23.42;34.24
75447;BME280;64024;55.820;37.574;2023-04-28T00:18:19;98261.91;;;23.37;33.98
75447;BME280;64024;55.820;37.574;2023-04-28T00:20:45;98272.28;;;23.44;34.07
75447;BME280;64024;55.820;37.574;2023-04-28T00:23:11;98262.50;;;23.34;33.88
75447;BME280;64024;55.820;37.574;2023-04-28T00:25:36;98264.91;;;23.27;34.28
75447;BME280;64024;55.820;37.574;2023-04-28T00:28:02;98265.38;;;23.20;34.40
75447;BME280;64024;55.820;37.574;2023-04-28T00:30:31;98263.94;;;23.14;34.16
75447;BME280;64024;55.820;37.574;2023-04-28T00:32:57;98254.81;;;23.10;34.37
75447;BME280;64024;55.820;37.574;2023-04-28T00:35:22;98254.94;;;23.05;34.58
75447;BME280;64024;55.820;37.574;2023-04-28T00:37:48;98255.59;;;23.02;34.69
75447;BME280;64024;55.820;37.574;2023-04-28T00:40:14;98253.50;;;22.99;34.47
75447;BME280;64024;55.820;37.574;2023-04-28T00:42:40;98244.41;;;22.95;34.55
75447;BME280;64024;55.820;37.574;2023-04-28T00:45:06;98243.44;;;22.91;34.66
75447;BME280;64024;55.820;37.574;2023-04-28T00:47:33;98254.84;;;22.88;34.84
75447;BME280;64024;55.820;37.574;2023-04-28T00:50:02;98253.59;;;22.85;34.75
75447;BME280;64024;55.820;37.574;2023-04-28T00:52:30;98252.63;;;22.81;34.76
75447;BME280;64024;55.820;37.574;2023-04-28T00:54:56;98255.16;;;22.77;35.11
75447;BME280;64024;55.820;37.574;2023-04-28T00:57:22;98251.47;;;22.73;35.09
75447;BME280;64024;55.820;37.574;2023-04-28T00:59:48;98246.66;;;22.70;35.19
75447;BME280;64024;55.820;37.574;2023-04-28T01:02:14;98247.28;;;22.67;35.23
75447;BME280;64024;55.820;37.574;2023-04-28T01:04:44;98242.47;;;22.64;34.79
75447;BME280;64024;55.820;37.574;2023-04-28T01:07:10;98245.50;;;22.63;35.31
75447;BME280;64024;55.820;37.574;2023-04-28T01:09:36;98243.41;;;22.59;35.30
75447;BME280;64024;55.820;37.574;2023-04-28T01:12:02;98243.22;;;22.56;35.35
75447;BME280;64024;55.820;37.574;2023-04-28T01:14:28;98236.88;;;22.52;35.44
75447;BME280;64024;55.820;37.574;2023-04-28T01:16:54;98243.69;;;22.49;35.28
75447;BME280;64024;55.820;37.574;2023-04-28T01:19:21;98244.31;;;22.46;35.39
75447;BME280;64024;55.820;37.574;2023-04-28T01:21:50;98252.56;;;22.41;35.58
75447;BME280;64024;55.820;37.574;2023-04-28T01:24:16;98253.16;;;22.38;35.56
75447;BME280;64024;55.820;37.574;2023-04-28T01:26:42;98249.19;;;22.36;35.73
75447;BME280;64024;55.820;37.574;2023-04-28T01:29:09;98245.19;;;22.33;35.85
75447;BME280;64024;55.820;37.574;2023-04-28T01:31:35;98245.78;;;22.30;35.82
75447;BME280;64024;55.820;37.574;2023-04-28T01:34:01;98248.03;;;22.28;35.82
75447;BME280;64024;55.820;37.574;2023-04-28T01:36:26;98246.72;;;22.25;35.80
75447;BME280;64024;55.820;37.574;2023-04-28T01:38:53;98245.41;;;22.23;35.96
75447;BME280;64024;55.820;37.574;2023-04-28T01:41:19;98249.56;;;22.20;35.89
75447;BME280;64024;55.820;37.574;2023-04-28T01:43:44;98251.75;;;22.18;36.01
75447;BME280;64024;55.820;37.574;2023-04-28T01:46:10;98255.09;;;22.15;36.16
75447;BME280;64024;55.820;37.574;2023-04-28T01:48:36;98254.88;;;22.12;36.10
75447;BME280;64024;55.820;37.574;2023-04-28T01:51:01;98261.69;;;22.09;36.10
75447;BME280;64024;55.820;37.574;2023-04-28T01:53:27;98265.00;;;22.06;36.15
75447;BME280;64024;55.820;37.574;2023-04-28T01:55:53;98266.44;;;22.03;36.23
75447;BME280;64024;55.820;37.574;2023-04-28T01:58:19;98262.44;;;22.01;36.10
75447;BME280;64024;55.820;37.574;2023-04-28T02:00:45;98264.94;;;21.97;36.21
75447;BME280;64024;55.820;37.574;2023-04-28T02:03:11;98255.56;;;21.95;36.50
75447;BME280;64024;55.820;37.574;2023-04-28T02:05:36;98250.75;;;21.92;36.27
75447;BME280;64024;55.820;37.574;2023-04-28T02:08:02;98255.97;;;21.88;36.45
75447;BME280;64024;55.820;37.574;2023-04-28T02:10:28;98241.97;;;21.86;36.29
75447;BME280;64024;55.820;37.574;2023-04-28T02:12:54;98250.38;;;21.84;36.66
75447;BME280;64024;55.820;37.574;2023-04-28T02:15:19;98249.09;;;21.82;36.48
75447;BME280;64024;55.820;37.574;2023-04-28T02:17:46;98245.88;;;21.80;36.57
75447;BME280;64024;55.820;37.574;2023-04-28T02:20:12;98232.97;;;21.77;36.59
75447;BME280;64024;55.820;37.574;2023-04-28T02:22:41;98239.81;;;21.74;36.61
75447;BME280;64024;55.820;37.574;2023-04-28T02:25:07;98243.63;;;21.73;36.54
75447;BME280;64024;55.820;37.574;2023-04-28T02:27:35;98243.41;;;21.70;36.77
75447;BME280;64024;55.820;37.574;2023-04-28T02:30:05;98249.91;;;21.69;36.74
75447;BME280;64024;55.820;37.574;2023-04-28T02:32:31;98247.53;;;21.67;36.94
75447;BME280;64024;55.820;37.574;2023-04-28T02:34:57;98238.09;;;21.65;37.00
75447;BME280;64024;55.820;37.574;2023-04-28T02:37:23;98240.00;;;21.64;36.83
75447;BME280;64024;55.820;37.574;2023-04-28T02:39:48;98243.03;;;21.63;36.94
75447;BME280;64024;55.820;37.574;2023-04-28T02:42:14;98246.84;;;21.62;37.01
75447;BME280;64024;55.820;37.574;2023-04-28T02:44:43;98241.72;;;21.60;37.03
75447;BME280;64024;55.820;37.574;2023-04-28T02:47:08;98247.44;;;21.58;37.15
75447;BME280;64024;55.820;37.574;2023-04-28T02:49:34;98257.75;;;21.56;37.41
75447;BME280;64024;55.820;37.574;2023-04-28T02:51:59;98263.47;;;21.55;37.19
75447;BME280;64024;55.820;37.574;2023-04-28T02:54:25;98261.09;;;21.53;37.06
75447;BME280;64024;55.820;37.574;2023-04-28T02:56:54;98259.50;;;21.52;37.26
75447;BME280;64024;55.820;37.574;2023-04-28T02:59:22;98257.88;;;21.51;37.24
75447;BME280;64024;55.820;37.574;2023-04-28T03:01:48;98254.09;;;21.52;37.52
75447;BME280;64024;55.820;37.574;2023-04-28T03:04:14;98263.28;;;21.51;37.54
75447;BME280;64024;55.820;37.574;2023-04-28T03:06:40;98261.88;;;21.54;37.86
75447;BME280;64024;55.820;37.574;2023-04-28T03:09:07;98277.00;;;21.55;37.92
75447;BME280;64024;55.820;37.574;2023-04-28T03:11:33;98272.59;;;21.59;38.00
75447;BME280;64024;55.820;37.574;2023-04-28T03:13:59;98267.38;;;21.63;38.14
75447;BME280;64024;55.820;37.574;2023-04-28T03:16:24;98277.59;;;21.66;38.12
75447;BME280;64024;55.820;37.574;2023-04-28T03:18:50;98266.97;;;21.69;38.29
75447;BME280;64024;55.820;37.574;2023-04-28T03:21:16;98266.84;;;21.74;38.52
75447;BME280;64024;55.820;37.574;2023-04-28T03:23:42;98265.13;;;21.78;38.60
75447;BME280;64024;55.820;37.574;2023-04-28T03:26:08;98271.22;;;21.84;38.82
75447;BME280;64024;55.820;37.574;2023-04-28T03:28:34;98266.00;;;21.88;38.78
75447;BME280;64024;55.820;37.574;2023-04-28T03:31:00;98264.28;;;21.92;38.84
75447;BME280;64024;55.820;37.574;2023-04-28T03:33:26;98262.56;;;21.96;38.90
75447;BME280;64024;55.820;37.574;2023-04-28T03:35:52;98273.25;;;22.01;38.88
75447;BME280;64024;55.820;37.574;2023-04-28T03:38:19;98281.56;;;22.04;39.07
75447;BME280;64024;55.820;37.574;2023-04-28T03:40:45;98287.97;;;22.08;39.16
75447;BME280;64024;55.820;37.574;2023-04-28T03:43:11;98281.66;;;22.13;38.92
75447;BME280;64024;55.820;37.574;2023-04-28T03:45:37;98283.44;;;22.18;39.15
75447;BME280;64024;55.820;37.574;2023-04-28T03:48:03;98291.75;;;22.21;39.04
75447;BME280;64024;55.820;37.574;2023-04-28T03:50:29;98287.00;;;22.27;39.21
75447;BME280;64024;55.820;37.574;2023-04-28T03:52:55;98289.59;;;22.32;39.12
75447;BME280;64024;55.820;37.574;2023-04-28T03:55:21;98292.50;;;22.36;39.21
75447;BME280;64024;55.820;37.574;2023-04-28T03:57:47;98290.78;;;22.40;39.17
75447;BME280;64024;55.820;37.574;2023-04-28T04:00:12;98287.16;;;22.44;39.30
75447;BME280;64024;55.820;37.574;2023-04-28T04:02:38;98287.81;;;22.50;39.34
75447;BME280;64024;55.820;37.574;2023-04-28T04:05:04;98290.69;;;22.53;39.29
75447;BME280;64024;55.820;37.574;2023-04-28T04:07:30;98294.06;;;22.59;39.21
75447;BME280;64024;55.820;37.574;2023-04-28T04:09:55;98296.47;;;22.61;39.25
75447;BME280;64024;55.820;37.574;2023-04-28T04:12:21;98290.94;;;22.66;39.24
75447;BME280;64024;55.820;37.574;2023-04-28T04:14:47;98291.59;;;22.71;39.42
75447;BME280;64024;55.820;37.574;2023-04-28T04:17:13;98289.84;;;22.75;39.41
75447;BME280;64024;55.820;37.574;2023-04-28T04:19:39;98291.63;;;22.80;39.40
75447;BME280;64024;55.820;37.574;2023-04-28T04:22:05;98291.50;;;22.85;39.30
75447;BME280;64024;55.820;37.574;2023-04-28T04:24:31;98297.09;;;22.89;39.18
75447;BME280;64024;55.820;37.574;2023-04-28T04:26:57;98302.41;;;22.94;39.35
75447;BME280;64024;55.820;37.574;2023-04-28T04:29:23;98304.47;;;22.97;39.27
75447;BME280;64024;55.820;37.574;2023-04-28T04:31:49;98301.16;;;23.00;39.02
75447;BME280;64024;55.820;37.574;2023-04-28T04:34:15;98298.31;;;23.05;39.21
75447;BME280;64024;55.820;37.574;2023-04-28T04:36:41;98306.31;;;23.10;39.28
75447;BME280;64024;55.820;37.574;2023-04-28T04:39:07;98304.88;;;23.13;38.96
75447;BME280;64024;55.820;37.574;2023-04-28T04:41:34;98303.94;;;23.17;38.81
75447;BME280;64024;55.820;37.574;2023-04-28T04:43:59;98301.41;;;23.21;39.04
75447;BME280;64024;55.820;37.574;2023-04-28T04:46:25;98300.78;;;23.24;38.93
75447;BME280;64024;55.820;37.574;2023-04-28T04:48:51;98308.75;;;23.29;38.96
75447;BME280;64024;55.820;37.574;2023-04-28T04:51:17;98303.84;;;23.31;39.04
75447;BME280;64024;55.820;37.574;2023-04-28T04:53:43;98319.16;;;23.36;38.66
75447;BME280;64024;55.820;37.574;2023-04-28T04:56:09;98317.72;;;23.38;38.89
75447;BME280;64024;55.820;37.574;2023-04-28T04:58:35;98320.59;;;23.42;38.76
75447;BME280;64024;55.820;37.574;2023-04-28T05:01:01;98326.19;;;23.45;38.55
75447;BME280;64024;55.820;37.574;2023-04-28T05:03:27;98316.66;;;23.48;38.64
75447;BME280;64024;55.820;37.574;2023-04-28T05:05:53;98328.75;;;23.50;38.50
75447;BME280;64024;55.820;37.574;2023-04-28T05:08:19;98335.47;;;23.53;38.68
75447;BME280;64024;55.820;37.574;2023-04-28T05:10:44;98322.38;;;23.55;38.48
75447;BME280;64024;55.820;37.574;2023-04-28T05:13:10;98326.84;;;23.60;38.50
75447;BME280;64024;55.820;37.574;2023-04-28T05:15:36;98327.03;;;23.63;38.20
75447;BME280;64024;55.820;37.574;2023-04-28T05:18:02;98334.56;;;23.66;38.32
75447;BME280;64024;55.820;37.574;2023-04-28T05:20:34;98335.53;;;23.70;38.02
75447;BME280;64024;55.820;37.574;2023-04-28T05:23:00;98347.34;;;23.74;37.96
75447;BME280;64024;55.820;37.574;2023-04-28T05:25:25;98351.03;;;23.78;38.25
75447;BME280;64024;55.820;37.574;2023-04-28T05:27:51;98360.94;;;23.83;37.95
75447;BME280;64024;55.820;37.574;2023-04-28T05:30:17;98356.00;;;23.85;37.91
75447;BME280;64024;55.820;37.574;2023-04-28T05:32:43;98349.94;;;23.88;37.92
75447;BME280;64024;55.820;37.574;2023-04-28T05:35:08;98362.06;;;23.91;38.02
75447;BME280;64024;55.820;37.574;2023-04-28T05:37:34;98357.94;;;23.93;38.20
75447;BME280;64024;55.820;37.574;2023-04-28T05:40:05;98368.13;;;23.96;38.10
75447;BME280;64024;55.820;37.574;2023-04-28T05:42:32;98361.63;;;23.97;37.98
75447;BME280;64024;55.820;37.574;2023-04-28T05:44:58;98359.38;;;23.99;38.11
75447;BME280;64024;55.820;37.574;2023-04-28T05:47:24;98351.72;;;24.01;38.10
75447;BME280;64024;55.820;37.574;2023-04-28T05:49:50;98363.03;;;24.03;38.11
75447;BME280;64024;55.820;37.574;2023-04-28T05:52:15;98359.69;;;24.06;37.99
75447;BME280;64024;55.820;37.574;2023-04-28T05:54:41;98354.75;;;24.09;37.91
75447;BME280;64024;55.820;37.574;2023-04-28T05:57:07;98359.88;;;24.10;38.10
75447;BME280;64024;55.820;37.574;2023-04-28T05:59:33;98359.53;;;24.12;37.80
75447;BME280;64024;55.820;37.574;2023-04-28T06:01:59;98358.13;;;24.14;38.02
75447;BME280;64024;55.820;37.574;2023-04-28T06:04:25;98359.72;;;24.15;38.54
75447;BME280;64024;55.820;37.574;2023-04-28T06:06:51;98350.09;;;24.18;38.33
75447;BME280;64024;55.820;37.574;2023-04-28T06:09:16;98359.88;;;24.19;38.57
75447;BME280;64024;55.820;37.574;2023-04-28T06:11:42;98358.75;;;24.20;38.37
75447;BME280;64024;55.820;37.574;2023-04-28T06:14:08;98365.75;;;24.21;38.11
75447;BME280;64024;55.820;37.574;2023-04-28T06:16:35;98356.50;;;24.22;38.27
75447;BME280;64024;55.820;37.574;2023-04-28T06:19:01;98360.84;;;24.23;38.38
75447;BME280;64024;55.820;37.574;2023-04-28T06:21:27;98364.34;;;24.23;38.11
75447;BME280;64024;55.820;37.574;2023-04-28T06:23:53;98357.78;;;24.24;38.40
75447;BME280;64024;55.820;37.574;2023-04-28T06:26:19;98357.44;;;24.26;38.11
75447;BME280;64024;55.820;37.574;2023-04-28T06:28:45;98356.81;;;24.29;38.16
75447;BME280;64024;55.820;37.574;2023-04-28T06:31:12;98359.25;;;24.30;38.26
75447;BME280;64024;55.820;37.574;2023-04-28T06:33:38;98351.88;;;24.31;37.84
75447;BME280;64024;55.820;37.574;2023-04-28T06:36:03;98359.69;;;24.33;38.06
75447;BME280;64024;55.820;37.574;2023-04-28T06:38:30;98346.63;;;24.35;37.94
75447;BME280;64024;55.820;37.574;2023-04-28T06:40:56;98354.44;;;24.36;38.14
75447;BME280;64024;55.820;37.574;2023-04-28T06:43:22;98351.41;;;24.38;38.26
75447;BME280;64024;55.820;37.574;2023-04-28T06:45:47;98344.56;;;24.40;38.23
75447;BME280;64024;55.820;37.574;2023-04-28T06:48:14;98350.44;;;24.42;38.20
75447;BME280;64024;55.820;37.574;2023-04-28T06:50:40;98350.94;;;24.44;38.16
75447;BME280;64024;55.820;37.574;2023-04-28T06:53:06;98342.97;;;24.48;38.43
75447;BME280;64024;55.820;37.574;2023-04-28T06:55:33;98346.94;;;24.50;38.25
75447;BME280;64024;55.820;37.574;2023-04-28T06:57:59;98348.56;;;24.51;38.69
75447;BME280;64024;55.820;37.574;2023-04-28T07:00:25;98343.59;;;24.53;38.56
75447;BME280;64024;55.820;37.574;2023-04-28T07:02:50;98347.59;;;24.56;38.60
75447;BME280;64024;55.820;37.574;2023-04-28T07:05:16;98344.53;;;24.58;38.50
75447;BME280;64024;55.820;37.574;2023-04-28T07:07:42;98351.25;;;24.60;38.67
75447;BME280;64024;55.820;37.574;2023-04-28T07:10:08;98341.97;;;24.61;38.41
75447;BME280;64024;55.820;37.574;2023-04-28T07:12:34;98345.97;;;24.64;38.37
75447;BME280;64024;55.820;37.574;2023-04-28T07:14:59;98351.53;;;24.67;38.34
75447;BME280;64024;55.820;37.574;2023-04-28T07:17:27;98343.88;;;24.69;38.37
75447;BME280;64024;55.820;37.574;2023-04-28T07:19:52;98345.97;;;24.72;38.69
75447;BME280;64024;55.820;37.574;2023-04-28T07:22:18;98349.94;;;24.75;38.87
75447;BME280;64024;55.820;37.574;2023-04-28T07:24:44;98355.53;;;24.78;39.11
75447;BME280;64024;55.820;37.574;2023-04-28T07:27:10;98356.00;;;24.80;39.29
75447;BME280;64024;55.820;37.574;2023-04-28T07:29:36;98356.13;;;24.84;39.70
75447;BME280;64024;55.820;37.574;2023-04-28T07:32:02;98352.31;;;24.85;39.20
75447;BME280;64024;55.820;37.574;2023-04-28T07:34:33;98358.72;;;24.89;38.68
75447;BME280;64024;55.820;37.574;2023-04-28T07:37:01;98360.28;;;24.90;38.56
75447;BME280;64024;55.820;37.574;2023-04-28T07:39:27;98339.34;;;24.91;38.47
75447;BME280;64024;55.820;37.574;2023-04-28T07:41:54;98350.56;;;24.89;38.24
75447;BME280;64024;55.820;37.574;2023-04-28T07:44:22;98357.75;;;24.85;38.19
75447;BME280;64024;55.820;37.574;2023-04-28T07:46:48;98367.34;;;24.83;38.20
75447;BME280;64024;55.820;37.574;2023-04-28T07:49:14;98362.09;;;24.77;38.04
75447;BME280;64024;55.820;37.574;2023-04-28T07:51:40;98361.78;;;24.70;38.16
75447;BME280;64024;55.820;37.574;2023-04-28T07:54:06;98369.94;;;24.62;37.92
75447;BME280;64024;55.820;37.574;2023-04-28T07:56:31;98362.25;;;24.55;37.95
75447;BME280;64024;55.820;37.574;2023-04-28T07:58:57;98366.75;;;24.51;38.19
75447;BME280;64024;55.820;37.574;2023-04-28T08:01:23;98356.53;;;24.48;38.37
75447;BME280;64024;55.820;37.574;2023-04-28T08:03:50;98368.84;;;24.45;38.54
75447;BME280;64024;55.820;37.574;2023-04-28T08:06:16;98362.94;;;24.43;38.53
75447;BME280;64024;55.820;37.574;2023-04-28T08:08:42;98360.84;;;24.40;38.67
75447;BME280;64024;55.820;37.574;2023-04-28T08:11:07;98357.94;;;24.37;38.72
75447;BME280;64024;55.820;37.574;2023-04-28T08:13:34;98364.00;;;24.34;38.95
75447;BME280;64024;55.820;37.574;2023-04-28T08:15:59;98362.75;;;24.31;38.80
75447;BME280;64024;55.820;37.574;2023-04-28T08:18:27;98363.84;;;24.30;38.78
75447;BME280;64024;55.820;37.574;2023-04-28T08:20:53;98361.47;;;24.28;38.89
75447;BME280;64024;55.820;37.574;2023-04-28T08:23:18;98359.53;;;24.29;38.74
75447;BME280;64024;55.820;37.574;2023-04-28T08:25:45;98353.66;;;24.27;39.08
75447;BME280;64024;55.820;37.574;2023-04-28T08:28:12;98362.59;;;24.27;38.89
75447;BME280;64024;55.820;37.574;2023-04-28T08:30:38;98356.34;;;24.27;39.14
75447;BME280;64024;55.820;37.574;2023-04-28T08:33:04;98359.72;;;24.24;39.38
75447;BME280;64024;55.820;37.574;2023-04-28T08:35:30;98358.13;;;24.23;39.17
75447;BME280;64024;55.820;37.574;2023-04-28T08:37:56;98354.44;;;24.19;39.39
75447;BME280;64024;55.820;37.574;2023-04-28T08:40:22;98355.06;;;24.16;39.57
75447;BME280;64024;55.820;37.574;2023-04-28T08:42:50;98363.06;;;24.12;39.79
75447;BME280;64024;55.820;37.574;2023-04-28T08:45:16;98367.50;;;24.08;39.71
75447;BME280;64024;55.820;37.574;2023-04-28T08:47:42;98363.38;;;24.02;40.10
75447;BME280;64024;55.820;37.574;2023-04-28T08:50:12;98370.38;;;23.94;39.94
75447;BME280;64024;55.820;37.574;2023-04-28T08:52:39;98376.09;;;23.84;40.16
75447;BME280;64024;55.820;37.574;2023-04-28T08:57:44;98368.66;;;23.58;40.98
75447;BME280;64024;55.820;37.574;2023-04-28T09:00:11;98368.97;;;23.48;40.82
75447;BME280;64024;55.820;37.574;2023-04-28T09:02:37;98365.09;;;23.41;41.08
75447;BME280;64024;55.820;37.574;2023-04-28T09:05:07;98367.97;;;23.36;41.19
75447;BME280;64024;55.820;37.574;2023-04-28T09:07:33;98371.63;;;23.31;41.43
75447;BME280;64024;55.820;37.574;2023-04-28T09:12:46;98377.28;;;23.21;41.97
75447;BME280;64024;55.820;37.574;2023-04-28T09:15:30;98383.66;;;23.16;42.13
75447;BME280;64024;55.820;37.574;2023-04-28T09:17:56;98370.25;;;23.11;41.76
75447;BME280;64024;55.820;37.574;2023-04-28T09:20:26;98372.16;;;23.11;42.24
75447;BME280;64024;55.820;37.574;2023-04-28T09:22:54;98377.41;;;23.07;42.16
75447;BME280;64024;55.820;37.574;2023-04-28T09:25:21;98370.38;;;23.06;42.20
75447;BME280;64024;55.820;37.574;2023-04-28T09:27:50;98373.91;;;23.06;42.74
75447;BME280;64024;55.820;37.574;2023-04-28T09:30:17;98369.75;;;23.09;42.92
75447;BME280;64024;55.820;37.574;2023-04-28T09:32:42;98369.91;;;23.13;42.75
75447;BME280;64024;55.820;37.574;2023-04-28T09:35:09;98374.72;;;23.16;42.81
75447;BME280;64024;55.820;37.574;2023-04-28T09:37:35;98370.59;;;23.18;42.82
75447;BME280;64024;55.820;37.574;2023-04-28T09:40:08;98368.38;;;23.20;42.94
75447;BME280;64024;55.820;37.574;2023-04-28T09:45:02;98369.66;;;23.23;42.70
75447;BME280;64024;55.820;37.574;2023-04-28T09:47:29;98362.34;;;23.23;42.95
75447;BME280;64024;55.820;37.574;2023-04-28T09:50:02;98367.44;;;23.25;42.71
75447;BME280;64024;55.820;37.574;2023-04-28T09:52:29;98368.56;;;23.24;42.96
75447;BME280;64024;55.820;37.574;2023-04-28T09:54:56;98364.25;;;23.23;42.95
75447;BME280;64024;55.820;37.574;2023-04-28T09:57:22;98382.72;;;23.21;42.65
75447;BME280;64024;55.820;37.574;2023-04-28T09:59:50;98374.13;;;23.19;42.83
75447;BME280;64024;55.820;37.574;2023-04-28T10:02:18;98375.53;;;23.16;43.07
75447;BME280;64024;55.820;37.574;2023-04-28T10:04:47;98379.19;;;23.12;42.76
75447;BME280;64024;55.820;37.574;2023-04-28T10:07:16;98373.25;;;23.10;43.13
75447;BME280;64024;55.820;37.574;2023-04-28T10:09:42;98374.69;;;23.07;43.21
75447;BME280;64024;55.820;37.574;2023-04-28T10:12:13;98374.69;;;23.07;42.94
75447;BME280;64024;55.820;37.574;2023-04-28T10:14:40;98373.09;;;23.06;42.78
75447;BME280;64024;55.820;37.574;2023-04-28T10:17:07;98384.72;;;23.06;43.05
75447;BME280;64024;55.820;37.574;2023-04-28T10:19:33;98382.81;;;23.07;43.09
75447;BME280;64024;55.820;37.574;2023-04-28T10:27:41;98375.97;;;23.10;43.11
75447;BME280;64024;55.820;37.574;2023-04-28T10:30:11;98384.91;;;23.10;43.31
75447;BME280;64024;55.820;37.574;2023-04-28T10:32:38;98388.44;;;23.11;43.06
75447;BME280;64024;55.820;37.574;2023-04-28T10:38:11;98392.13;;;23.15;43.34
75447;BME280;64024;55.820;37.574;2023-04-28T10:40:42;98384.28;;;23.13;43.26
75447;BME280;64024;55.820;37.574;2023-04-28T10:56:21;98404.00;;;23.05;43.52
75447;BME280;64024;55.820;37.574;2023-04-28T11:06:36;98403.88;;;23.10;44.07
75447;BME280;64024;55.820;37.574;2023-04-28T11:09:48;98406.59;;;23.10;44.06
75447;BME280;64024;55.820;37.574;2023-04-28T11:14:32;98403.25;;;23.13;44.03
75447;BME280;64024;55.820;37.574;2023-04-28T11:19:31;98403.44;;;23.17;43.85
75447;BME280;64024;55.820;37.574;2023-04-28T11:22:02;98402.31;;;23.18;43.55
75447;BME280;64024;55.820;37.574;2023-04-28T11:24:28;98405.84;;;23.18;43.36
75447;BME280;64024;55.820;37.574;2023-04-28T11:26:55;98408.22;;;23.20;43.37
75447;BME280;64024;55.820;37.574;2023-04-28T11:29:38;98409.81;;;23.21;43.29
75447;BME280;64024;55.820;37.574;2023-04-28T11:32:08;98404.41;;;23.21;43.46
75447;BME280;64024;55.820;37.574;2023-04-28T11:34:35;98398.97;;;23.21;43.59
75447;BME280;64024;55.820;37.574;2023-04-28T11:37:01;98405.19;;;23.21;43.28
75447;BME280;64024;55.820;37.574;2023-04-28T11:39:34;98412.22;;;23.22;43.46
75447;BME280;64024;55.820;37.574;2023-04-28T11:42:04;98418.75;;;23.21;43.53
75447;BME280;64024;55.820;37.574;2023-04-28T11:44:33;98412.22;;;23.22;43.58
75447;BME280;64024;55.820;37.574;2023-04-28T11:47:01;98412.22;;;23.22;43.96
75447;BME280;64024;55.820;37.574;2023-04-28T11:49:31;98412.72;;;23.24;43.54
75447;BME280;64024;55.820;37.574;2023-04-28T11:52:08;98411.31;;;23.27;43.67
75447;BME280;64024;55.820;37.574;2023-04-28T11:54:34;98400.47;;;23.27;44.05
75447;BME280;64024;55.820;37.574;2023-04-28T11:57:00;98406.03;;;23.30;44.21
75447;BME280;64024;55.820;37.574;2023-04-28T11:59:33;98407.00;;;23.35;44.20
75447;BME280;64024;55.820;37.574;2023-04-28T12:02:07;98393.63;;;23.38;44.04
75447;BME280;64024;55.820;37.574;2023-04-28T12:04:38;98403.88;;;23.41;43.75
75447;BME280;64024;55.820;37.574;2023-04-28T12:07:14;98401.34;;;23.45;44.22
75447;BME280;64024;55.820;37.574;2023-04-28T12:09:45;98404.84;;;23.45;43.67
75447;BME280;64024;55.820;37.574;2023-04-28T12:12:27;98398.00;;;23.48;43.75
75447;BME280;64024;55.820;37.574;2023-04-28T12:15:01;98394.00;;;23.45;43.82
75447;BME280;64024;55.820;37.574;2023-04-28T12:17:34;98391.28;;;23.45;43.61
75447;BME280;64024;55.820;37.574;2023-04-28T12:20:03;98392.88;;;23.46;43.44
75447;BME280;64024;55.820;37.574;2023-04-28T12:22:30;98406.44;;;23.46;43.13
75447;BME280;64024;55.820;37.574;2023-04-28T12:25:09;98397.22;;;23.47;42.95
75447;BME280;64024;55.820;37.574;2023-04-28T12:27:35;98394.81;;;23.54;43.08
75447;BME280;64024;55.820;37.574;2023-04-28T12:30:15;98396.88;;;23.49;42.60
75447;BME280;64024;55.820;37.574;2023-04-28T12:32:49;98396.38;;;23.47;42.85
75447;BME280;64024;55.820;37.574;2023-04-28T12:35:15;98406.75;;;23.45;42.83
75447;BME280;64024;55.820;37.574;2023-04-28T12:37:42;98410.25;;;23.45;42.50
75447;BME280;64024;55.820;37.574;2023-04-28T12:40:09;98405.63;;;23.46;42.26
75447;BME280;64024;55.820;37.574;2023-04-28T12:42:35;98404.84;;;23.45;42.19
75447;BME280;64024;55.820;37.574;2023-04-28T12:45:00;98404.03;;;23.45;42.40
75447;BME280;64024;55.820;37.574;2023-04-28T12:47:26;98410.59;;;23.44;42.21
75447;BME280;64024;55.820;37.574;2023-04-28T12:49:52;98409.47;;;23.45;42.34
75447;BME280;64024;55.820;37.574;2023-04-28T12:52:19;98400.53;;;23.44;42.12
75447;BME280;64024;55.820;37.574;2023-04-28T12:54:44;98405.47;;;23.42;41.86
75447;BME280;64024;55.820;37.574;2023-04-28T12:57:17;98406.25;;;23.43;42.10
75447;BME280;64024;55.820;37.574;2023-04-28T12:59:46;98400.03;;;23.42;42.28
75447;BME280;64024;55.820;37.574;2023-04-28T13:02:17;98407.88;;;23.44;42.21
75447;BME280;64024;55.820;37.574;2023-04-28T13:04:43;98405.16;;;23.44;41.81
75447;BME280;64024;55.820;37.574;2023-04-28T13:07:13;98405.16;;;23.44;42.36
75447;BME280;64024;55.820;37.574;2023-04-28T13:09:40;98397.81;;;23.44;42.14
75447;BME280;64024;55.820;37.574;2023-04-28T13:12:07;98401.34;;;23.45;42.12
75447;BME280;64024;55.820;37.574;2023-04-28T13:14:33;98402.94;;;23.46;42.01
75447;BME280;64024;55.820;37.574;2023-04-28T13:16:59;98405.63;;;23.46;41.82
75447;BME280;64024;55.820;37.574;2023-04-28T13:19:26;98398.00;;;23.48;41.72
75447;BME280;64024;55.820;37.574;2023-04-28T13:21:52;98401.50;;;23.48;41.96
75447;BME280;64024;55.820;37.574;2023-04-28T13:24:18;98401.19;;;23.50;41.84
75447;BME280;64024;55.820;37.574;2023-04-28T13:26:45;98412.53;;;23.52;41.64
75447;BME280;64024;55.820;37.574;2023-04-28T13:29:11;98409.19;;;23.55;41.74
75447;BME280;64024;55.820;37.574;2023-04-28T13:31:37;98415.09;;;23.57;42.00